sensor_id;sensor_type;location;lat;lon;timestamp;pressure;altitude;pressure_sealevel;temperature;humidity
43878;BME280;29815;48.184;11.268;2022-11-15T00:00:55;95510.72;;;2.00;100.00
43878;BME280;29815;48.184;11.268;2022-11-15T00:03:44;95503.19;;;1.97;100.00
43878;BME280;29815;48.184;11.268;2022-11-15T00:06:34;95501.66;;;1.89;100.00
43878;BME280;29815;48.184;11.268;2022-11-15T00:09:22;95505.59;;;1.80;100.00
43878;BME280;29815;48.184;11.268;2022-11-15T00:12:10;95502.22;;;1.66;100.00
43878;BME280;29815;48.184;11.268;2022-11-15T00:14:59;95514.75;;;1.59;100.00
43878;BME280;29815;48.184;11.268;2022-11-15T00:17:49;95505.00;;;1.47;100.00
43878;BME280;29815;48.184;11.268;2022-11-15T00:20:37;95498.31;;;1.44;100.00
43878;BME280;29815;48.184;11.268;2022-11-15T00:23:27;95496.06;;;1.41;100.00
43878;BME280;29815;48.184;11.268;2022-11-15T00:26:16;95491.19;;;1.38;100.00
43878;BME280;29815;48.184;11.268;2022-11-15T00:29:04;95493.28;;;1.36;100.00
43878;BME280;29815;48.184;11.268;2022-11-15T00:31:52;95494.72;;;1.32;100.00
43878;BME280;29815;48.184;11.268;2022-11-15T00:34:41;95479.63;;;1.32;100.00
43878;BME280;29815;48.184;11.268;2022-11-15T00:37:29;95488.19;;;1.34;100.00
43878;BME280;29815;48.184;11.268;2022-11-15T00:40:18;95489.00;;;1.35;100.00
43878;BME280;29815;48.184;11.268;2022-11-15T00:43:06;95485.75;;;1.33;100.00
43878;BME280;29815;48.184;11.268;2022-11-15T00:45:54;95476.78;;;1.27;100.00
43878;BME280;29815;48.184;11.268;2022-11-15T00:48:42;95478.88;;;1.19;100.00
43878;BME280;29815;48.184;11.268;2022-11-15T00:51:30;95480.59;;;1.07;100.00
43878;BME280;29815;48.184;11.268;2022-11-15T00:54:18;95487.34;;;1.02;100.00
43878;BME280;29815;48.184;11.268;2022-11-15T00:57:08;95479.03;;;0.92;100.00
43878;BME280;29815;48.184;11.268;2022-11-15T00:59:57;95490.44;;;0.93;100.00
43878;BME280;29815;48.184;11.268;2022-11-15T01:02:44;95485.38;;;0.85;100.00
43878;BME280;29815;48.184;11.268;2022-11-15T01:05:32;95490.50;;;0.80;100.00
43878;BME280;29815;48.184;11.268;2022-11-15T01:08:21;95487.88;;;0.73;100.00
43878;BME280;29815;48.184;11.268;2022-11-15T01:11:11;95488.88;;;0.79;100.00
43878;BME280;29815;48.184;11.268;2022-11-15T01:14:01;95488.06;;;0.78;100.00
43878;BME280;29815;48.184;11.268;2022-11-15T01:16:50;95486.66;;;0.76;100.00
43878;BME280;29815;48.184;11.268;2022-11-15T01:19:38;95479.13;;;0.73;100.00
43878;BME280;29815;48.184;11.268;2022-11-15T01:22:26;95467.72;;;0.72;100.00
43878;BME280;29815;48.184;11.268;2022-11-15T01:25:14;95469.53;;;0.78;100.00
43878;BME280;29815;48.184;11.268;2022-11-15T01:28:02;95461.59;;;0.78;100.00
43878;BME280;29815;48.184;11.268;2022-11-15T01:30:52;95461.53;;;0.85;100.00
43878;BME280;29815;48.184;11.268;2022-11-15T01:33:40;95454.25;;;0.80;100.00
43878;BME280;29815;48.184;11.268;2022-11-15T01:36:28;95457.69;;;0.81;100.00
43878;BME280;29815;48.184;11.268;2022-11-15T01:39:16;95441.56;;;0.82;100.00
43878;BME280;29815;48.184;11.268;2022-11-15T01:42:04;95440.13;;;0.86;100.00
43878;BME280;29815;48.184;11.268;2022-11-15T01:44:53;95433.41;;;0.84;100.00
43878;BME280;29815;48.184;11.268;2022-11-15T01:47:45;95432.44;;;0.78;100.00
43878;BME280;29815;48.184;11.268;2022-11-15T01:50:35;95432.25;;;0.73;100.00
43878;BME280;29815;48.184;11.268;2022-11-15T01:53:25;95436.56;;;0.67;100.00
43878;BME280;29815;48.184;11.268;2022-11-15T01:56:18;95429.25;;;0.63;100.00
43878;BME280;29815;48.184;11.268;2022-11-15T01:59:08;95426.19;;;0.59;100.00
43878;BME280;29815;48.184;11.268;2022-11-15T02:01:58;95410.91;;;0.61;100.00
43878;BME280;29815;48.184;11.268;2022-11-15T02:04:48;95414.97;;;0.71;100.00
43878;BME280;29815;48.184;11.268;2022-11-15T02:07:37;95413.94;;;0.72;100.00
43878;BME280;29815;48.184;11.268;2022-11-15T02:10:25;95421.88;;;0.72;100.00
43878;BME280;29815;48.184;11.268;2022-11-15T02:13:14;95422.69;;;0.72;100.00
43878;BME280;29815;48.184;11.268;2022-11-15T02:16:11;95420.25;;;0.71;100.00
43878;BME280;29815;48.184;11.268;2022-11-15T02:19:21;95411.91;;;0.67;100.00
43878;BME280;29815;48.184;11.268;2022-11-15T13:06:57;94892.09;;;10.85;100.00
43878;BME280;29815;48.184;11.268;2022-11-15T13:09:52;94886.00;;;10.98;100.00
43878;BME280;29815;48.184;11.268;2022-11-15T13:12:55;94889.84;;;11.16;100.00
43878;BME280;29815;48.184;11.268;2022-11-15T13:15:40;94891.81;;;11.29;100.00
43878;BME280;29815;48.184;11.268;2022-11-15T13:18:37;94892.78;;;11.38;100.00
43878;BME280;29815;48.184;11.268;2022-11-15T13:21:23;94895.34;;;11.48;100.00
43878;BME280;29815;48.184;11.268;2022-11-15T13:24:16;94888.03;;;11.68;100.00
43878;BME280;29815;48.184;11.268;2022-11-15T13:26:46;94885.13;;;11.83;100.00
43878;BME280;29815;48.184;11.268;2022-11-15T13:29:20;94883.81;;;11.99;100.00
43878;BME280;29815;48.184;11.268;2022-11-15T13:31:49;94875.06;;;12.21;100.00
43878;BME280;29815;48.184;11.268;2022-11-15T13:34:29;94877.59;;;12.45;100.00
43878;BME280;29815;48.184;11.268;2022-11-15T13:37:29;94871.44;;;12.72;100.00
43878;BME280;29815;48.184;11.268;2022-11-15T13:40:26;94870.53;;;12.90;100.00
43878;BME280;29815;48.184;11.268;2022-11-15T13:42:58;94874.63;;;13.01;100.00
43878;BME280;29815;48.184;11.268;2022-11-15T13:45:28;94878.03;;;13.07;100.00
43878;BME280;29815;48.184;11.268;2022-11-15T13:47:58;94889.22;;;13.14;100.00
43878;BME280;29815;48.184;11.268;2022-11-15T13:50:31;94881.22;;;13.36;100.00
43878;BME280;29815;48.184;11.268;2022-11-15T13:53:04;94886.94;;;13.71;100.00
43878;BME280;29815;48.184;11.268;2022-11-15T13:55:35;94886.09;;;14.06;100.00
43878;BME280;29815;48.184;11.268;2022-11-15T13:58:05;94879.13;;;14.36;100.00
43878;BME280;29815;48.184;11.268;2022-11-15T14:00:37;94881.97;;;14.53;100.00
43878;BME280;29815;48.184;11.268;2022-11-15T14:03:17;94874.75;;;14.80;100.00
43878;BME280;29815;48.184;11.268;2022-11-15T14:06:08;94875.28;;;14.90;100.00
43878;BME280;29815;48.184;11.268;2022-11-15T14:08:41;94874.66;;;14.94;100.00
43878;BME280;29815;48.184;11.268;2022-11-15T14:11:17;94888.97;;;14.85;100.00
43878;BME280;29815;48.184;11.268;2022-11-15T14:14:21;94885.91;;;14.78;100.00
43878;BME280;29815;48.184;11.268;2022-11-15T14:16:53;94885.22;;;14.64;100.00
43878;BME280;29815;48.184;11.268;2022-11-15T14:19:38;94885.34;;;14.37;100.00
43878;BME280;29815;48.184;11.268;2022-11-15T14:22:18;94892.53;;;13.97;100.00
43878;BME280;29815;48.184;11.268;2022-11-15T14:25:16;94883.28;;;13.53;100.00
43878;BME280;29815;48.184;11.268;2022-11-15T14:28:12;94887.63;;;13.13;100.00
43878;BME280;29815;48.184;11.268;2022-11-15T14:30:46;94886.34;;;12.83;100.00
43878;BME280;29815;48.184;11.268;2022-11-15T14:33:23;94886.34;;;12.56;100.00
43878;BME280;29815;48.184;11.268;2022-11-15T14:35:53;94897.75;;;12.34;100.00
43878;BME280;29815;48.184;11.268;2022-11-15T14:38:24;94892.09;;;12.03;100.00
43878;BME280;29815;48.184;11.268;2022-11-15T14:40:54;94894.16;;;11.73;100.00
43878;BME280;29815;48.184;11.268;2022-11-15T14:43:26;94893.22;;;11.45;100.00
43878;BME280;29815;48.184;11.268;2022-11-15T14:45:55;94890.88;;;11.20;100.00
43878;BME280;29815;48.184;11.268;2022-11-15T14:48:25;94884.22;;;10.94;100.00
43878;BME280;29815;48.184;11.268;2022-11-15T14:50:54;94894.66;;;10.71;100.00
43878;BME280;29815;48.184;11.268;2022-11-15T14:53:24;94892.25;;;10.46;100.00
43878;BME280;29815;48.184;11.268;2022-11-15T14:55:53;94884.72;;;10.19;100.00
43878;BME280;29815;48.184;11.268;2022-11-15T14:58:22;94885.16;;;9.97;100.00
43878;BME280;29815;48.184;11.268;2022-11-15T15:00:53;94875.38;;;9.77;100.00
43878;BME280;29815;48.184;11.268;2022-11-15T15:03:23;94883.53;;;9.62;100.00
43878;BME280;29815;48.184;11.268;2022-11-15T15:05:52;94880.47;;;9.45;100.00
43878;BME280;29815;48.184;11.268;2022-11-15T15:08:22;94877.06;;;9.29;100.00
43878;BME280;29815;48.184;11.268;2022-11-15T15:10:52;94875.25;;;9.14;100.00
43878;BME280;29815;48.184;11.268;2022-11-15T15:13:24;94872.41;;;9.01;100.00
43878;BME280;29815;48.184;11.268;2022-11-15T15:15:54;94872.72;;;8.89;100.00
43878;BME280;29815;48.184;11.268;2022-11-15T15:18:23;94864.16;;;8.82;100.00
43878;BME280;29815;48.184;11.268;2022-11-15T15:20:56;94863.41;;;8.71;100.00
43878;BME280;29815;48.184;11.268;2022-11-15T15:23:27;94871.22;;;8.63;100.00
43878;BME280;29815;48.184;11.268;2022-11-15T15:25:59;94864.78;;;8.59;100.00
43878;BME280;29815;48.184;11.268;2022-11-15T15:28:30;94869.09;;;8.55;100.00
43878;BME280;29815;48.184;11.268;2022-11-15T15:31:02;94862.72;;;8.40;100.00
43878;BME280;29815;48.184;11.268;2022-11-15T15:33:32;94862.16;;;8.28;100.00
43878;BME280;29815;48.184;11.268;2022-11-15T15:36:01;94861.66;;;8.16;100.00
43878;BME280;29815;48.184;11.268;2022-11-15T15:38:31;94870.53;;;8.01;100.00
43878;BME280;29815;48.184;11.268;2022-11-15T15:41:01;94868.94;;;7.90;100.00
43878;BME280;29815;48.184;11.268;2022-11-15T15:43:32;94858.22;;;7.80;100.00
43878;BME280;29815;48.184;11.268;2022-11-15T15:46:02;94867.06;;;7.75;100.00
43878;BME280;29815;48.184;11.268;2022-11-15T15:48:31;94861.97;;;7.74;100.00
43878;BME280;29815;48.184;11.268;2022-11-15T15:51:05;94857.69;;;7.73;100.00
43878;BME280;29815;48.184;11.268;2022-11-15T15:53:47;94860.09;;;7.69;100.00
43878;BME280;29815;48.184;11.268;2022-11-15T15:56:17;94858.78;;;7.57;100.00
43878;BME280;29815;48.184;11.268;2022-11-15T15:58:48;94857.44;;;7.49;100.00
43878;BME280;29815;48.184;11.268;2022-11-15T16:01:17;94857.41;;;7.44;100.00
43878;BME280;29815;48.184;11.268;2022-11-15T16:03:47;94852.06;;;7.39;100.00
43878;BME280;29815;48.184;11.268;2022-11-15T16:06:35;94843.78;;;7.35;100.00
43878;BME280;29815;48.184;11.268;2022-11-15T16:09:06;94842.97;;;7.35;100.00
43878;BME280;29815;48.184;11.268;2022-11-15T16:11:45;94833.34;;;7.34;100.00
43878;BME280;29815;48.184;11.268;2022-11-15T16:14:16;94830.41;;;7.35;100.00
43878;BME280;29815;48.184;11.268;2022-11-15T16:16:46;94829.59;;;7.35;100.00
43878;BME280;29815;48.184;11.268;2022-11-15T16:19:15;94823.16;;;7.31;100.00
43878;BME280;29815;48.184;11.268;2022-11-15T16:21:44;94820.19;;;7.22;100.00
43878;BME280;29815;48.184;11.268;2022-11-15T16:24:14;94816.69;;;7.11;100.00
43878;BME280;29815;48.184;11.268;2022-11-15T16:26:43;94814.03;;;7.01;100.00
43878;BME280;29815;48.184;11.268;2022-11-15T16:29:16;94799.03;;;6.95;100.00
43878;BME280;29815;48.184;11.268;2022-11-15T16:31:45;94803.84;;;6.93;100.00
43878;BME280;29815;48.184;11.268;2022-11-15T16:34:15;94800.38;;;6.93;100.00
43878;BME280;29815;48.184;11.268;2022-11-15T16:36:45;94798.75;;;6.92;100.00
43878;BME280;29815;48.184;11.268;2022-11-15T16:39:15;94805.16;;;6.91;100.00
43878;BME280;29815;48.184;11.268;2022-11-15T16:41:46;94806.50;;;6.88;100.00
43878;BME280;29815;48.184;11.268;2022-11-15T16:44:17;94809.16;;;6.78;100.00
43878;BME280;29815;48.184;11.268;2022-11-15T16:46:46;94809.94;;;6.68;100.00
43878;BME280;29815;48.184;11.268;2022-11-15T16:49:20;94798.41;;;6.63;100.00
43878;BME280;29815;48.184;11.268;2022-11-15T16:51:50;94801.38;;;6.56;100.00
43878;BME280;29815;48.184;11.268;2022-11-15T16:54:20;94789.06;;;6.55;100.00
43878;BME280;29815;48.184;11.268;2022-11-15T16:56:52;94786.91;;;6.57;100.00
43878;BME280;29815;48.184;11.268;2022-11-15T16:59:27;94777.28;;;6.61;100.00
43878;BME280;29815;48.184;11.268;2022-11-15T17:02:11;94765.78;;;6.61;100.00
43878;BME280;29815;48.184;11.268;2022-11-15T17:04:41;94770.88;;;6.62;100.00
43878;BME280;29815;48.184;11.268;2022-11-15T17:07:10;94790.66;;;6.61;100.00
43878;BME280;29815;48.184;11.268;2022-11-15T17:09:41;94781.31;;;6.54;100.00
43878;BME280;29815;48.184;11.268;2022-11-15T17:12:11;94770.84;;;6.47;100.00
43878;BME280;29815;48.184;11.268;2022-11-15T17:14:42;94767.91;;;6.43;100.00
43878;BME280;29815;48.184;11.268;2022-11-15T17:17:13;94770.81;;;6.37;100.00
43878;BME280;29815;48.184;11.268;2022-11-15T17:19:42;94777.19;;;6.26;100.00
43878;BME280;29815;48.184;11.268;2022-11-15T17:22:12;94777.69;;;6.18;100.00
43878;BME280;29815;48.184;11.268;2022-11-15T17:24:42;94780.59;;;6.11;100.00
43878;BME280;29815;48.184;11.268;2022-11-15T17:27:11;94774.69;;;6.04;100.00
43878;BME280;29815;48.184;11.268;2022-11-15T17:29:42;94774.13;;;5.97;100.00
43878;BME280;29815;48.184;11.268;2022-11-15T17:32:11;94765.53;;;5.90;100.00
43878;BME280;29815;48.184;11.268;2022-11-15T17:34:41;94769.75;;;5.86;100.00
43878;BME280;29815;48.184;11.268;2022-11-15T17:37:10;94760.69;;;5.87;100.00
43878;BME280;29815;48.184;11.268;2022-11-15T17:39:40;94763.94;;;5.89;100.00
43878;BME280;29815;48.184;11.268;2022-11-15T17:42:10;94765.03;;;5.93;100.00
43878;BME280;29815;48.184;11.268;2022-11-15T17:44:43;94763.97;;;5.94;100.00
43878;BME280;29815;48.184;11.268;2022-11-15T17:47:13;94757.00;;;5.93;100.00
43878;BME280;29815;48.184;11.268;2022-11-15T17:49:42;94753.81;;;5.91;100.00
43878;BME280;29815;48.184;11.268;2022-11-15T17:52:12;94753.47;;;5.87;100.00
43878;BME280;29815;48.184;11.268;2022-11-15T17:54:41;94756.38;;;5.81;100.00
43878;BME280;29815;48.184;11.268;2022-11-15T17:57:11;94756.63;;;5.74;100.00
43878;BME280;29815;48.184;11.268;2022-11-15T17:59:40;94748.34;;;5.70;100.00
43878;BME280;29815;48.184;11.268;2022-11-15T18:02:11;94742.16;;;5.65;100.00
43878;BME280;29815;48.184;11.268;2022-11-15T18:04:40;94747.47;;;5.60;100.00
43878;BME280;29815;48.184;11.268;2022-11-15T18:07:10;94737.00;;;5.53;100.00
43878;BME280;29815;48.184;11.268;2022-11-15T18:09:41;94735.66;;;5.51;100.00
43878;BME280;29815;48.184;11.268;2022-11-15T18:12:11;94728.97;;;5.48;100.00
43878;BME280;29815;48.184;11.268;2022-11-15T18:14:41;94739.63;;;5.48;100.00
43878;BME280;29815;48.184;11.268;2022-11-15T18:17:12;94733.25;;;5.49;100.00
43878;BME280;29815;48.184;11.268;2022-11-15T18:19:41;94733.25;;;5.49;100.00
43878;BME280;29815;48.184;11.268;2022-11-15T18:22:11;94725.50;;;5.48;100.00
43878;BME280;29815;48.184;11.268;2022-11-15T18:24:40;94725.50;;;5.48;100.00
43878;BME280;29815;48.184;11.268;2022-11-15T18:27:11;94726.59;;;5.47;100.00
43878;BME280;29815;48.184;11.268;2022-11-15T18:29:41;94727.63;;;5.46;100.00
43878;BME280;29815;48.184;11.268;2022-11-15T18:32:13;94728.16;;;5.42;100.00
43878;BME280;29815;48.184;11.268;2022-11-15T18:34:44;94724.69;;;5.42;100.00
43878;BME280;29815;48.184;11.268;2022-11-15T18:37:14;94714.56;;;5.44;100.00
43878;BME280;29815;48.184;11.268;2022-11-15T18:39:43;94711.88;;;5.49;100.00
43878;BME280;29815;48.184;11.268;2022-11-15T18:42:19;94726.28;;;5.48;100.00
43878;BME280;29815;48.184;11.268;2022-11-15T18:44:49;94709.47;;;5.48;100.00
43878;BME280;29815;48.184;11.268;2022-11-15T18:47:20;94709.47;;;5.48;100.00
43878;BME280;29815;48.184;11.268;2022-11-15T18:49:49;94702.81;;;5.50;100.00
43878;BME280;29815;48.184;11.268;2022-11-15T18:52:19;94702.81;;;5.50;100.00
43878;BME280;29815;48.184;11.268;2022-11-15T18:54:49;94701.75;;;5.51;100.00
43878;BME280;29815;48.184;11.268;2022-11-15T18:57:19;94701.75;;;5.51;100.00
43878;BME280;29815;48.184;11.268;2022-11-15T18:59:48;94693.22;;;5.49;100.00
43878;BME280;29815;48.184;11.268;2022-11-15T19:02:17;94694.28;;;5.48;100.00
43878;BME280;29815;48.184;11.268;2022-11-15T19:04:48;94696.94;;;5.48;100.00
43878;BME280;29815;48.184;11.268;2022-11-15T19:07:18;94690.28;;;5.51;100.00
43878;BME280;29815;48.184;11.268;2022-11-15T19:09:47;94684.94;;;5.51;100.00
43878;BME280;29815;48.184;11.268;2022-11-15T19:12:17;94683.63;;;5.53;100.00
43878;BME280;29815;48.184;11.268;2022-11-15T19:14:46;94673.50;;;5.55;100.00
43878;BME280;29815;48.184;11.268;2022-11-15T19:17:16;94681.50;;;5.55;100.00
43878;BME280;29815;48.184;11.268;2022-11-15T19:19:47;94675.38;;;5.55;100.00
43878;BME280;29815;48.184;11.268;2022-11-15T19:22:16;94675.63;;;5.53;100.00
43878;BME280;29815;48.184;11.268;2022-11-15T19:24:46;94674.00;;;5.52;100.00
43878;BME280;29815;48.184;11.268;2022-11-15T19:27:15;94672.16;;;5.53;100.00
43878;BME280;29815;48.184;11.268;2022-11-15T19:29:45;94662.28;;;5.53;100.00
43878;BME280;29815;48.184;11.268;2022-11-15T19:32:15;94665.75;;;5.54;100.00
43878;BME280;29815;48.184;11.268;2022-11-15T19:34:44;94660.66;;;5.52;100.00
43878;BME280;29815;48.184;11.268;2022-11-15T19:37:15;94660.13;;;5.50;100.00
43878;BME280;29815;48.184;11.268;2022-11-15T19:39:44;94660.94;;;5.51;100.00
43878;BME280;29815;48.184;11.268;2022-11-15T19:42:14;94658.53;;;5.49;100.00
43878;BME280;29815;48.184;11.268;2022-11-15T19:44:43;94649.72;;;5.49;100.00
43878;BME280;29815;48.184;11.268;2022-11-15T19:47:12;94653.44;;;5.48;100.00
43878;BME280;29815;48.184;11.268;2022-11-15T19:49:42;94646.22;;;5.48;100.00
43878;BME280;29815;48.184;11.268;2022-11-15T19:52:15;94653.97;;;5.50;100.00
43878;BME280;29815;48.184;11.268;2022-11-15T19:54:44;94653.72;;;5.46;100.00
43878;BME280;29815;48.184;11.268;2022-11-15T19:57:15;94650.25;;;5.46;100.00
43878;BME280;29815;48.184;11.268;2022-11-15T19:59:45;94641.69;;;5.43;100.00
43878;BME280;29815;48.184;11.268;2022-11-15T20:02:15;94642.75;;;5.42;100.00
43878;BME280;29815;48.184;11.268;2022-11-15T20:04:44;94635.81;;;5.41;100.00
43878;BME280;29815;48.184;11.268;2022-11-15T20:07:15;94644.88;;;5.40;100.00
43878;BME280;29815;48.184;11.268;2022-11-15T20:09:46;94646.22;;;5.38;100.00
43878;BME280;29815;48.184;11.268;2022-11-15T20:12:17;94634.19;;;5.35;100.00
43878;BME280;29815;48.184;11.268;2022-11-15T20:14:46;94639.25;;;5.37;100.00
43878;BME280;29815;48.184;11.268;2022-11-15T20:17:15;94637.41;;;5.37;100.00
43878;BME280;29815;48.184;11.268;2022-11-15T20:19:45;94633.13;;;5.36;100.00
43878;BME280;29815;48.184;11.268;2022-11-15T20:22:16;94640.06;;;5.37;100.00
43878;BME280;29815;48.184;11.268;2022-11-15T20:24:45;94635.25;;;5.34;100.00
43878;BME280;29815;48.184;11.268;2022-11-15T20:27:15;94634.69;;;5.32;100.00
43878;BME280;29815;48.184;11.268;2022-11-15T20:29:44;94638.72;;;5.35;100.00
43878;BME280;29815;48.184;11.268;2022-11-15T20:32:15;94639.78;;;5.34;100.00
43878;BME280;29815;48.184;11.268;2022-11-15T20:34:45;94631.78;;;5.34;100.00
43878;BME280;29815;48.184;11.268;2022-11-15T20:37:22;94625.91;;;5.37;100.00
43878;BME280;29815;48.184;11.268;2022-11-15T20:39:51;94631.81;;;5.39;100.00
43878;BME280;29815;48.184;11.268;2022-11-15T20:42:21;94621.94;;;5.39;100.00
43878;BME280;29815;48.184;11.268;2022-11-15T20:44:50;94612.31;;;5.38;100.00
43878;BME280;29815;48.184;11.268;2022-11-15T20:47:20;94605.13;;;5.39;100.00
43878;BME280;29815;48.184;11.268;2022-11-15T20:49:56;94602.44;;;5.39;100.00
43878;BME280;29815;48.184;11.268;2022-11-15T20:52:46;94596.84;;;5.40;100.00
43878;BME280;29815;48.184;11.268;2022-11-15T20:55:16;94588.59;;;5.42;100.00
43878;BME280;29815;48.184;11.268;2022-11-15T20:57:46;94577.13;;;5.41;100.00
43878;BME280;29815;48.184;11.268;2022-11-15T21:00:17;94580.84;;;5.40;100.00
43878;BME280;29815;48.184;11.268;2022-11-15T21:02:49;94576.31;;;5.41;100.00
43878;BME280;29815;48.184;11.268;2022-11-15T21:05:18;94569.66;;;5.43;100.00
43878;BME280;29815;48.184;11.268;2022-11-15T21:07:50;94569.41;;;5.45;100.00
43878;BME280;29815;48.184;11.268;2022-11-15T21:10:19;94558.19;;;5.43;100.00
43878;BME280;29815;48.184;11.268;2022-11-15T21:13:06;94555.78;;;5.41;100.00
43878;BME280;29815;48.184;11.268;2022-11-15T21:15:36;94544.84;;;5.43;100.00
43878;BME280;29815;48.184;11.268;2022-11-15T21:18:05;94548.31;;;5.43;100.00
43878;BME280;29815;48.184;11.268;2022-11-15T21:20:35;94543.22;;;5.42;100.00
43878;BME280;29815;48.184;11.268;2022-11-15T21:23:06;94550.69;;;5.40;100.00
43878;BME280;29815;48.184;11.268;2022-11-15T21:25:35;94554.16;;;5.40;100.00
43878;BME280;29815;48.184;11.268;2022-11-15T21:28:05;94541.88;;;5.39;100.00
43878;BME280;29815;48.184;11.268;2022-11-15T21:30:34;94539.22;;;5.39;100.00
43878;BME280;29815;48.184;11.268;2022-11-15T21:33:04;94537.63;;;5.38;100.00
43878;BME280;29815;48.184;11.268;2022-11-15T21:35:33;94525.34;;;5.37;100.00
43878;BME280;29815;48.184;11.268;2022-11-15T21:38:03;94513.84;;;5.37;100.00
43878;BME280;29815;48.184;11.268;2022-11-15T21:40:34;94516.00;;;5.40;100.00
43878;BME280;29815;48.184;11.268;2022-11-15T21:43:03;94514.13;;;5.40;100.00
43878;BME280;29815;48.184;11.268;2022-11-15T21:45:33;94514.94;;;5.41;100.00
43878;BME280;29815;48.184;11.268;2022-11-15T21:48:03;94517.06;;;5.39;100.00
43878;BME280;29815;48.184;11.268;2022-11-15T21:50:34;94509.59;;;5.36;100.00
43878;BME280;29815;48.184;11.268;2022-11-15T21:53:03;94513.56;;;5.33;100.00
43878;BME280;29815;48.184;11.268;2022-11-15T21:55:34;94507.97;;;5.30;100.00
43878;BME280;29815;48.184;11.268;2022-11-15T21:58:07;94502.34;;;5.26;100.00
43878;BME280;29815;48.184;11.268;2022-11-15T22:00:36;94499.66;;;5.21;100.00
43878;BME280;29815;48.184;11.268;2022-11-15T22:03:23;94499.16;;;5.19;100.00
43878;BME280;29815;48.184;11.268;2022-11-15T22:05:52;94506.84;;;5.16;100.00
43878;BME280;29815;48.184;11.268;2022-11-15T22:08:22;94509.47;;;5.05;100.00
43878;BME280;29815;48.184;11.268;2022-11-15T22:10:53;94499.84;;;4.99;100.00
43878;BME280;29815;48.184;11.268;2022-11-15T22:13:24;94495.84;;;4.92;100.00
43878;BME280;29815;48.184;11.268;2022-11-15T22:15:54;94498.47;;;4.87;100.00
43878;BME280;29815;48.184;11.268;2022-11-15T22:18:24;94492.56;;;4.80;100.00
43878;BME280;29815;48.184;11.268;2022-11-15T22:20:55;94486.16;;;4.75;100.00
43878;BME280;29815;48.184;11.268;2022-11-15T22:23:27;94481.88;;;4.74;100.00
43878;BME280;29815;48.184;11.268;2022-11-15T22:25:59;94475.75;;;4.74;100.00
43878;BME280;29815;48.184;11.268;2022-11-15T22:28:29;94472.03;;;4.75;100.00
43878;BME280;29815;48.184;11.268;2022-11-15T22:31:00;94461.34;;;4.75;100.00
43878;BME280;29815;48.184;11.268;2022-11-15T22:33:31;94463.75;;;4.76;100.00
43878;BME280;29815;48.184;11.268;2022-11-15T22:36:03;94464.56;;;4.77;100.00
43878;BME280;29815;48.184;11.268;2022-11-15T22:38:34;94464.56;;;4.77;100.00
43878;BME280;29815;48.184;11.268;2022-11-15T22:41:05;94470.41;;;4.74;100.00
43878;BME280;29815;48.184;11.268;2022-11-15T22:43:37;94468.78;;;4.68;100.00
43878;BME280;29815;48.184;11.268;2022-11-15T22:46:06;94474.88;;;4.58;100.00
43878;BME280;29815;48.184;11.268;2022-11-15T22:48:37;94471.38;;;4.53;100.00
43878;BME280;29815;48.184;11.268;2022-11-15T22:51:08;94466.31;;;4.51;100.00
43878;BME280;29815;48.184;11.268;2022-11-15T22:53:38;94467.09;;;4.52;100.00
43878;BME280;29815;48.184;11.268;2022-11-15T22:56:09;94467.66;;;4.54;100.00
43878;BME280;29815;48.184;11.268;2022-11-15T22:58:46;94458.09;;;4.58;100.00
43878;BME280;29815;48.184;11.268;2022-11-15T23:01:20;94450.63;;;4.60;100.00
43878;BME280;29815;48.184;11.268;2022-11-15T23:03:50;94445.84;;;4.62;100.00
43878;BME280;29815;48.184;11.268;2022-11-15T23:06:20;94445.59;;;4.63;100.00
43878;BME280;29815;48.184;11.268;2022-11-15T23:08:49;94440.00;;;4.65;100.00
43878;BME280;29815;48.184;11.268;2022-11-15T23:11:20;94438.66;;;4.67;100.00
43878;BME280;29815;48.184;11.268;2022-11-15T23:14:06;94441.59;;;4.71;100.00
43878;BME280;29815;48.184;11.268;2022-11-15T23:16:36;94437.63;;;4.73;100.00
43878;BME280;29815;48.184;11.268;2022-11-15T23:19:08;94429.38;;;4.75;100.00
43878;BME280;29815;48.184;11.268;2022-11-15T23:21:41;94422.72;;;4.78;100.00
43878;BME280;29815;48.184;11.268;2022-11-15T23:24:30;94413.41;;;4.80;100.00
43878;BME280;29815;48.184;11.268;2022-11-15T23:27:05;94404.09;;;4.83;100.00
43878;BME280;29815;48.184;11.268;2022-11-15T23:29:36;94396.09;;;4.83;100.00
43878;BME280;29815;48.184;11.268;2022-11-15T23:32:19;94393.97;;;4.85;100.00
43878;BME280;29815;48.184;11.268;2022-11-15T23:35:07;94381.44;;;4.85;100.00
43878;BME280;29815;48.184;11.268;2022-11-15T23:37:39;94370.50;;;4.87;100.00
43878;BME280;29815;48.184;11.268;2022-11-15T23:40:11;94363.31;;;4.87;100.00
43878;BME280;29815;48.184;11.268;2022-11-15T23:42:42;94354.53;;;4.87;100.00
43878;BME280;29815;48.184;11.268;2022-11-15T23:45:12;94352.66;;;4.87;100.00
43878;BME280;29815;48.184;11.268;2022-11-15T23:47:42;94338.53;;;4.87;100.00
43878;BME280;29815;48.184;11.268;2022-11-15T23:50:12;94333.19;;;4.87;100.00
43878;BME280;29815;48.184;11.268;2022-11-15T23:52:42;94334.00;;;4.87;100.00
43878;BME280;29815;48.184;11.268;2022-11-15T23:55:11;94330.53;;;4.87;100.00
43878;BME280;29815;48.184;11.268;2022-11-15T23:57:42;94330.78;;;4.85;100.00
